Matanuska — WN4201 — position and weather

sailwx.info

Track history (hours):
 
Tides and Currents Weather Stations Pressure Air Temp Water Temp Dewpoint Dewpoint Depression Visibility Wind Speed Wind Dir Waves Ship Positions

Matanuska

Owner: ALASKA MARINE HIGHWAY SYSTEM DEPARTMENT OF TRANSPORTATION, Anchorage, AK. More information available from US FCC via Universal Licensing System and Coast Guard Vessel Documentation Center.

Last reported at 2020-Sep-27 10:01 UTC. Time now 2020-Sep-27 13:26 UTC.
Position N 54°36' W 130°40'.

Type: Passenger vessel. MMSI: 338195000.

Date/timePositionNaut miles runAvg speedWind from/ knotsBaromVisibWave heightAir tempDewpointWater temp
2020-Sep-27 10:01N 54°36' W 130°40'4016.1
2020-Sep-27 07:30N 53°59' W 130°13'12314.4
2020-Sep-26 23:01N 52°16' W 128°23'1110.9
2020-Sep-26 22:00N 52°09' W 128°08'4214.0
2020-Sep-26 19:00N 51°28' W 127°51'11614.5
2020-Sep-26 11:00N 50°18' W 125°25'2617.2
2020-Sep-26 09:30N 49°56' W 125°06'2517.0
2020-Sep-26 08:00N 49°38' W 124°38'916.9
2020-Sep-26 07:30N 49°32' W 124°29'916.5
2020-Sep-26 06:59N 49°26' W 124°19'816.9
2020-Sep-26 06:30N 49°23' W 124°07'1716.7
2020-Sep-26 05:30N 49°18' W 123°43'59 9.2
2020-Sep-25 23:06N 48°43' W 122°31'7 2.8
2020-Sep-25 20:30N 48°40' W 122°40'1515.3
2020-Sep-25 19:30N 48°49' W 122°58'7615.1
2020-Sep-25 14:30N 49°34' W 124°32'714.9
2020-Sep-25 14:00N 49°39' W 124°40'714.8
2020-Sep-25 13:30N 49°44' W 124°48'8612.2
2020-Sep-25 06:30N 50°32' W 126°40'713.5
2020-Sep-25 05:58N 50°35' W 126°49'3314.6
2020-Sep-25 03:42N 50°57' W 127°29'4213.3
2020-Sep-25 00:31N 51°37' W 127°53'  
2020-Sep-20 12:12N 54°50' W 131°03'316.8
2020-Sep-20 12:00N 54°47' W 131°01'1016.9
2020-Sep-20 11:25N 54°37' W 130°59'1516.5
2020-Sep-20 10:30N 54°22' W 131°04'3115.5
2020-Sep-20 08:30N 53°52' W 130°52'2617.1
2020-Sep-20 07:00N 53°36' W 130°18'8412.0
2020-Sep-20 00:00N 52°41' W 128°33'3911.1
2020-Sep-19 20:30N 52°05' W 128°07'2013.4
2020-Sep-19 19:01N 51°47' W 127°55'2416.1
2020-Sep-19 17:31N 51°23' W 127°50'1615.8
2020-Sep-19 16:30N 51°07' W 127°46'9314.3
2020-Sep-19 10:00N 50°22' W 125°38'3614.2
2020-Sep-19 07:30N 49°54' W 125°04'816.8
2020-Sep-19 07:00N 49°48' W 124°54'3416.9
2020-Sep-19 05:00N 49°25' W 124°16'816.8
2020-Sep-19 04:30N 49°22' W 124°04'3316.6
2020-Sep-19 02:30N 49°04' W 123°21'1716.8
2020-Sep-19 01:30N 48°53' W 123°02'23 3.5
2020-Sep-18 18:56N 48°43' W 122°31'0 0.0
2020-Sep-18 17:44N 48°43' W 122°31'11 4.1
2020-Sep-18 15:01N 48°45' W 122°47'2617.4
2020-Sep-18 13:30N 49°00' W 123°20'4916.2
2020-Sep-18 10:30N 49°27' W 124°22'4816.2
2020-Sep-18 07:30N 50°02' W 125°13'714.7
2020-Sep-18 07:01N 50°08' W 125°21'14012.1
2020-Sep-17 19:31N 51°48' W 127°55'2610.6
2020-Sep-17 17:00N 52°13' W 128°08'1812.1
2020-Sep-17 15:30N 52°27' W 128°28'  
Track history (hours):
 
Tides and Currents Weather Stations Pressure Air Temp Water Temp Dewpoint Dewpoint Depression Visibility Wind Speed Wind Dir Waves Ship Positions

Matanuska

Owner: ALASKA MARINE HIGHWAY SYSTEM DEPARTMENT OF TRANSPORTATION, Anchorage, AK. More information available from US FCC via Universal Licensing System and Coast Guard Vessel Documentation Center.

Last reported at 2020-Sep-27 10:01 UTC. Time now 2020-Sep-27 13:26 UTC.
Position N 54°36' W 130°40'.

Type: Passenger vessel. MMSI: 338195000.

Date/timePositionNaut miles runAvg speedWind from/ knotsBaromVisibWave heightAir tempDewpointWater temp
2020-Sep-27 10:01N 54°36' W 130°40'4016.1
2020-Sep-27 07:30N 53°59' W 130°13'12314.4
2020-Sep-26 23:01N 52°16' W 128°23'1110.9
2020-Sep-26 22:00N 52°09' W 128°08'4214.0
2020-Sep-26 19:00N 51°28' W 127°51'11614.5
2020-Sep-26 11:00N 50°18' W 125°25'2617.2
2020-Sep-26 09:30N 49°56' W 125°06'2517.0
2020-Sep-26 08:00N 49°38' W 124°38'916.9
2020-Sep-26 07:30N 49°32' W 124°29'916.5
2020-Sep-26 06:59N 49°26' W 124°19'816.9
2020-Sep-26 06:30N 49°23' W 124°07'1716.7
2020-Sep-26 05:30N 49°18' W 123°43'59 9.2
2020-Sep-25 23:06N 48°43' W 122°31'7 2.8
2020-Sep-25 20:30N 48°40' W 122°40'1515.3
2020-Sep-25 19:30N 48°49' W 122°58'7615.1
2020-Sep-25 14:30N 49°34' W 124°32'714.9
2020-Sep-25 14:00N 49°39' W 124°40'714.8
2020-Sep-25 13:30N 49°44' W 124°48'8612.2
2020-Sep-25 06:30N 50°32' W 126°40'713.5
2020-Sep-25 05:58N 50°35' W 126°49'3314.6
2020-Sep-25 03:42N 50°57' W 127°29'4213.3
2020-Sep-25 00:31N 51°37' W 127°53'  
2020-Sep-20 12:12N 54°50' W 131°03'316.8
2020-Sep-20 12:00N 54°47' W 131°01'1016.9
2020-Sep-20 11:25N 54°37' W 130°59'1516.5
2020-Sep-20 10:30N 54°22' W 131°04'3115.5
2020-Sep-20 08:30N 53°52' W 130°52'2617.1
2020-Sep-20 07:00N 53°36' W 130°18'8412.0
2020-Sep-20 00:00N 52°41' W 128°33'3911.1
2020-Sep-19 20:30N 52°05' W 128°07'2013.4
2020-Sep-19 19:01N 51°47' W 127°55'2416.1
2020-Sep-19 17:31N 51°23' W 127°50'1615.8
2020-Sep-19 16:30N 51°07' W 127°46'9314.3
2020-Sep-19 10:00N 50°22' W 125°38'3614.2
2020-Sep-19 07:30N 49°54' W 125°04'816.8
2020-Sep-19 07:00N 49°48' W 124°54'3416.9
2020-Sep-19 05:00N 49°25' W 124°16'816.8
2020-Sep-19 04:30N 49°22' W 124°04'3316.6
2020-Sep-19 02:30N 49°04' W 123°21'1716.8
2020-Sep-19 01:30N 48°53' W 123°02'23 3.5
2020-Sep-18 18:56N 48°43' W 122°31'0 0.0
2020-Sep-18 17:44N 48°43' W 122°31'11 4.1
2020-Sep-18 15:01N 48°45' W 122°47'2617.4
2020-Sep-18 13:30N 49°00' W 123°20'4916.2
2020-Sep-18 10:30N 49°27' W 124°22'4816.2
2020-Sep-18 07:30N 50°02' W 125°13'714.7
2020-Sep-18 07:01N 50°08' W 125°21'14012.1
2020-Sep-17 19:31N 51°48' W 127°55'2610.6
2020-Sep-17 17:00N 52°13' W 128°08'1812.1
2020-Sep-17 15:30N 52°27' W 128°28'  

Dump ship's entire track history